Time;durP1;ratioP1;P1;durP2;ratioP2;P2;SDS_P1;SDS_P2;PMS_P1;PMS_P2;Temp;Humidity;BMP_temperature;BMP_pressure;BME280_temperature;BME280_humidity;BME280_pressure;Samples;Min_cycle;Max_cycle;Signal;HPM_P1;HPM_P2
2022/06/09 00:01:31;;;;;;;;;;;;;;;;;;5050856;28;1088;-75
2022/06/09 00:04:00;;;;;;;;;;;;;;;;;;5050821;28;1072;-74
2022/06/09 00:06:26;;;;;;;;;;;;;;;;;;5050606;28;1289;-75
2022/06/09 00:08:52;;;;;;;;;;;;;;;;;;5051194;28;1088;-74
2022/06/09 00:11:19;;;;;;;;;;;;;;;;;;5050690;28;794;-76
2022/06/09 00:13:46;;;;;;;;;;;;;;;;;;5050918;28;972;-74
2022/06/09 00:16:13;;;;;;;;;;;;;;;;;;5050370;28;1980;-74
2022/06/09 00:18:40;;;;;;;;;;;;;;;;;;5050564;28;1135;-75
2022/06/09 00:21:07;;;;;;;;;;;;;;;;;;5050429;28;1122;-75
2022/06/09 00:23:33;;;;;;;;;;;;;;;;;;5050526;28;795;-75
2022/06/09 00:26:00;;;;;;;;;;;;;;;;;;5050201;28;1302;-75
2022/06/09 00:28:26;;;;;;;;;;;;;;;;;;5050290;28;1119;-74
2022/06/09 00:30:52;;;;;;;;;;;;;;;;;;5050451;28;988;-74
2022/06/09 00:33:19;;;;;;;;;;;;;;;;;;5050207;28;1128;-75
2022/06/09 00:35:45;;;;;;;;;;;;;;;;;;5050266;28;1972;-74
2022/06/09 00:38:13;;;;;;;;;;;;;;;;;;5070626;22;3682;-70
2022/06/09 00:40:39;;;;;;;;;;;;;;;;;;5070149;28;1172;-73
2022/06/09 00:43:05;;;;;;;;;;;;;;;;;;5064269;28;1431;-72
2022/06/09 00:45:33;;;;;;;;;;;;;;;;;;5066993;28;1116;-73
2022/06/09 00:48:01;;;;;;;;;;;;;;;;;;5077500;28;1349;-73
2022/06/09 00:50:27;;;;;;;;;;;;;;;;;;5090706;28;1047;-73
2022/06/09 00:52:54;;;;;;;;;;;;;;;;;;5090605;28;1011;-72
2022/06/09 00:55:22;;;;;;;;;;;;;;;;;;5090676;28;1914;-72
2022/06/09 00:57:49;;;;;;;;;;;;;;;;;;5092464;28;1408;-73
2022/06/09 01:00:16;;;;;;;;;;;;;;;;;;5098466;28;1205;-73
2022/06/09 01:02:43;;;;;;;;;;;;;;;;;;5095919;28;834;-72
2022/06/09 01:05:09;;;;;;;;;;;;;;;;;;5094620;28;838;-72
2022/06/09 01:07:36;;;;;;;;;;;;;;;;;;5094088;28;1387;-72
2022/06/09 01:10:02;;;;;;;;;;;;;;;;;;5094405;28;1000;-72
2022/06/09 01:12:31;;;;;;;;;;;;;;;;;;5094364;28;995;-72
2022/06/09 01:14:59;;;;;;;;;;;;;;;;;;5094187;28;1922;-72
2022/06/09 01:17:29;;;;;;;;;;;;;;;;;;5094136;28;1409;-72
2022/06/09 01:19:58;;;;;;;;;;;;;;;;;;5076634;28;708;-72
2022/06/09 01:22:26;;;;;;;;;;;;;;;;;;5094195;28;1055;-72
2022/06/09 01:25:00;;;;;;;;;;;;;;;;;;5094164;28;834;-72
2022/06/09 01:27:32;;;;;;;;;;;;;;;;;;5075660;28;1296;-71
2022/06/09 01:30:03;;;;;;;;;;;;;;;;;;5094035;28;953;-73
2022/06/09 01:32:32;;;;;;;;;;;;;;;;;;5091939;28;1478;-72
2022/06/09 01:35:05;;;;;;;;;;;;;;;;;;5073453;28;1932;-72
2022/06/09 01:37:32;;;;;;;;;;;;;;;;;;5083776;28;1392;-72
2022/06/09 01:39:59;;;;;;;;;;;;;;;;;;5093842;28;941;-72
2022/06/09 01:42:27;;;;;;;;;;;;;;;;;;5093671;28;790;-72
2022/06/09 01:44:54;;;;;;;;;;;;;;;;;;5093643;28;1231;-72
2022/06/09 01:47:21;;;;;;;;;;;;;;;;;;5093355;28;1379;-72
2022/06/09 01:49:49;;;;;;;;;;;;;;;;;;5093598;28;1581;-73
2022/06/09 01:52:15;;;;;;;;;;;;;;;;;;5093738;28;1111;-72
2022/06/09 01:54:41;;;;;;;;;;;;;;;;;;5093529;28;1919;-72
2022/06/09 01:57:09;;;;;;;;;;;;;;;;;;5093500;28;1244;-71
2022/06/09 01:59:35;;;;;;;;;;;;;;;;;;5093559;28;937;-72
2022/06/09 02:02:04;;;;;;;;;;;;;;;;;;5075814;28;1146;-72
2022/06/09 02:04:31;;;;;;;;;;;;;;;;;;5093432;28;881;-72
2022/06/09 02:06:58;;;;;;;;;;;;;;;;;;5093000;28;995;-72
2022/06/09 02:09:25;;;;;;;;;;;;;;;;;;5092663;28;1310;-73
2022/06/09 02:11:52;;;;;;;;;;;;;;;;;;5092551;28;912;-71
2022/06/09 02:14:19;;;;;;;;;;;;;;;;;;5093287;28;1127;-72
2022/06/09 02:16:45;;;;;;;;;;;;;;;;;;5092683;28;1969;-73
2022/06/09 02:19:11;;;;;;;;;;;;;;;;;;5093051;28;1321;-72
2022/06/09 02:21:37;;;;;;;;;;;;;;;;;;5093051;28;1072;-72
2022/06/09 02:24:05;;;;;;;;;;;;;;;;;;5092995;28;767;-72
2022/06/09 02:26:31;;;;;;;;;;;;;;;;;;5092862;28;952;-72
2022/06/09 02:28:57;;;;;;;;;;;;;;;;;;5093012;28;1345;-72
2022/06/09 02:31:24;;;;;;;;;;;;;;;;;;5093233;28;1126;-72
2022/06/09 02:33:50;;;;;;;;;;;;;;;;;;5093318;28;850;-72
2022/06/09 02:36:17;;;;;;;;;;;;;;;;;;5092532;28;1918;-73
2022/06/09 02:38:43;;;;;;;;;;;;;;;;;;5092463;28;1331;-72
2022/06/09 02:41:11;;;;;;;;;;;;;;;;;;5092920;28;1004;-72
2022/06/09 02:43:37;;;;;;;;;;;;;;;;;;5092522;28;917;-72
2022/06/09 02:46:03;;;;;;;;;;;;;;;;;;5092857;28;1153;-72
2022/06/09 02:48:30;;;;;;;;;;;;;;;;;;5092249;28;1384;-72
2022/06/09 02:50:57;;;;;;;;;;;;;;;;;;5092519;28;869;-73
2022/06/09 02:53:23;;;;;;;;;;;;;;;;;;5092356;28;1107;-72
2022/06/09 02:55:49;;;;;;;;;;;;;;;;;;5092321;28;1910;-73
2022/06/09 02:58:17;;;;;;;;;;;;;;;;;;5092116;28;1359;-73
2022/06/09 03:00:43;;;;;;;;;;;;;;;;;;5092103;28;712;-73
2022/06/09 03:03:12;;;;;;;;;;;;;;;;;;5092173;28;984;-71
2022/06/09 03:05:38;;;;;;;;;;;;;;;;;;5092104;28;1023;-71
2022/06/09 03:08:06;;;;;;;;;;;;;;;;;;5091862;28;1301;-71
2022/06/09 03:10:32;;;;;;;;;;;;;;;;;;5092014;28;1075;-71
2022/06/09 03:12:58;;;;;;;;;;;;;;;;;;5091863;28;882;-71
2022/06/09 03:15:26;;;;;;;;;;;;;;;;;;5091935;28;1977;-71
2022/06/09 03:17:53;;;;;;;;;;;;;;;;;;5091648;28;1325;-71
2022/06/09 03:20:20;;;;;;;;;;;;;;;;;;5091885;28;1016;-71
2022/06/09 03:22:46;;;;;;;;;;;;;;;;;;5091299;28;1020;-71
2022/06/09 03:25:12;;;;;;;;;;;;;;;;;;5091820;28;1075;-71
2022/06/09 03:27:39;;;;;;;;;;;;;;;;;;5075372;28;1510;-71
2022/06/09 03:30:05;;;;;;;;;;;;;;;;;;5071378;28;1126;-73
2022/06/09 03:32:33;;;;;;;;;;;;;;;;;;5071603;28;995;-72
2022/06/09 03:34:59;;;;;;;;;;;;;;;;;;5071595;28;1981;-71
2022/06/09 03:37:25;;;;;;;;;;;;;;;;;;5080824;28;1385;-71
2022/06/09 03:39:51;;;;;;;;;;;;;;;;;;5091468;28;960;-71
2022/06/09 03:42:18;;;;;;;;;;;;;;;;;;5091545;28;1063;-71
2022/06/09 03:44:44;;;;;;;;;;;;;;;;;;5091831;28;786;-71
2022/06/09 03:47:11;;;;;;;;;;;;;;;;;;5091433;28;1465;-70
2022/06/09 03:49:39;;;;;;;;;;;;;;;;;;5091459;28;1051;-73
2022/06/09 03:52:05;;;;;;;;;;;;;;;;;;5091743;28;1127;-73
2022/06/09 03:54:31;;;;;;;;;;;;;;;;;;5091389;28;1075;-73
2022/06/09 03:56:57;;;;;;;;;;;;;;;;;;5091099;28;1961;-73
2022/06/09 03:59:23;;;;;;;;;;;;;;;;;;5091379;28;1341;-72
2022/06/09 04:01:50;;;;;;;;;;;;;;;;;;5091192;28;1138;-71
2022/06/09 04:04:16;;;;;;;;;;;;;;;;;;5091252;28;814;-73
2022/06/09 04:06:43;;;;;;;;;;;;;;;;;;5090952;28;988;-73
2022/06/09 04:09:10;;;;;;;;;;;;;;;;;;5091037;28;1245;-73
2022/06/09 04:11:37;;;;;;;;;;;;;;;;;;5091238;28;1075;-73
2022/06/09 04:14:03;;;;;;;;;;;;;;;;;;5091158;28;932;-73
2022/06/09 04:16:31;;;;;;;;;;;;;;;;;;5090660;28;1914;-73
2022/06/09 04:18:59;;;;;;;;;;;;;;;;;;5090951;28;1379;-72
2022/06/09 04:21:25;;;;;;;;;;;;;;;;;;5090978;28;1019;-72
2022/06/09 04:23:53;;;;;;;;;;;;;;;;;;5090800;28;1016;-73
2022/06/09 04:26:20;;;;;;;;;;;;;;;;;;5090636;28;1456;-72
2022/06/09 04:28:46;;;;;;;;;;;;;;;;;;5090833;28;1458;-73
2022/06/09 04:31:12;;;;;;;;;;;;;;;;;;5096898;28;1131;-72
2022/06/09 04:33:39;;;;;;;;;;;;;;;;;;5092913;28;1084;-73
2022/06/09 04:36:05;;;;;;;;;;;;;;;;;;5100581;28;1909;-70
2022/06/09 04:38:32;;;;;;;;;;;;;;;;;;5099621;28;1339;-72
2022/06/09 04:41:01;;;;;;;;;;;;;;;;;;5094988;28;1123;-72
2022/06/09 04:43:27;;;;;;;;;;;;;;;;;;5094994;28;1115;-72
2022/06/09 04:45:53;;;;;;;;;;;;;;;;;;5094946;28;1111;-72
2022/06/09 04:48:19;;;;;;;;;;;;;;;;;;5094574;28;1363;-72
2022/06/09 04:50:45;;;;;;;;;;;;;;;;;;5094758;28;857;-72
2022/06/09 04:53:11;;;;;;;;;;;;;;;;;;5094738;28;1055;-72
2022/06/09 04:55:38;;;;;;;;;;;;;;;;;;5094457;28;1985;-72
2022/06/09 04:58:06;;;;;;;;;;;;;;;;;;5094262;28;1323;-72
2022/06/09 05:00:32;;;;;;;;;;;;;;;;;;5094497;28;1107;-72
2022/06/09 05:02:59;;;;;;;;;;;;;;;;;;5094534;28;1027;-72
2022/06/09 05:05:25;;;;;;;;;;;;;;;;;;5094594;28;983;-72
2022/06/09 05:07:52;;;;;;;;;;;;;;;;;;5094101;28;1352;-72
2022/06/09 05:10:18;;;;;;;;;;;;;;;;;;5094282;28;1055;-72
2022/06/09 05:12:44;;;;;;;;;;;;;;;;;;5094239;28;1087;-72
2022/06/09 05:15:13;;;;;;;;;;;;;;;;;;5094270;28;1071;-72
2022/06/09 05:17:39;;;;;;;;;;;;;;;;;;5093867;28;1922;-72
2022/06/09 05:20:06;;;;;;;;;;;;;;;;;;5094375;28;984;-73
2022/06/09 05:22:32;;;;;;;;;;;;;;;;;;5094030;28;949;-72
2022/06/09 05:24:59;;;;;;;;;;;;;;;;;;5094261;28;1149;-72
2022/06/09 05:27:25;;;;;;;;;;;;;;;;;;5087012;28;1459;-73
2022/06/09 05:29:51;;;;;;;;;;;;;;;;;;5073783;28;1079;-72
2022/06/09 05:32:19;;;;;;;;;;;;;;;;;;5073674;28;1440;-72
2022/06/09 05:34:45;;;;;;;;;;;;;;;;;;5073547;28;910;-72
2022/06/09 05:37:11;;;;;;;;;;;;;;;;;;5081209;28;1914;-71
2022/06/09 05:45:19;;;;;;;;;;;;;;;;;;5014440;28;1119;-71
2022/06/09 05:47:47;;;;;;;;;;;;;;;;;;5030979;28;1283;-72
2022/06/09 05:50:13;;;;;;;;;;;;;;;;;;5057865;28;1443;-73
2022/06/09 05:52:39;;;;;;;;;;;;;;;;;;5093598;28;924;-73
2022/06/09 05:55:07;;;;;;;;;;;;;;;;;;5093619;28;1103;-72
2022/06/09 05:57:33;;;;;;;;;;;;;;;;;;5092941;28;1906;-72
2022/06/09 05:59:59;;;;;;;;;;;;;;;;;;5093649;28;707;-72
2022/06/09 06:02:26;;;;;;;;;;;;;;;;;;5093420;28;940;-72
2022/06/09 06:04:54;;;;;;;;;;;;;;;;;;5093331;28;1059;-72
2022/06/09 06:07:20;;;;;;;;;;;;;;;;;;5093139;28;1433;-72
2022/06/09 06:09:46;;;;;;;;;;;;;;;;;;5093207;28;917;-72
2022/06/09 06:12:12;;;;;;;;;;;;;;;;;;5093534;28;1123;-72
2022/06/09 06:14:40;;;;;;;;;;;;;;;;;;5093357;28;1052;-72
2022/06/09 06:17:06;;;;;;;;;;;;;;;;;;5092919;28;1909;-72
2022/06/09 06:19:33;;;;;;;;;;;;;;;;;;5093008;28;1312;-72
2022/06/09 06:22:00;;;;;;;;;;;;;;;;;;5093085;28;929;-72
2022/06/09 06:24:27;;;;;;;;;;;;;;;;;;5092927;28;1059;-72
2022/06/09 06:26:53;;;;;;;;;;;;;;;;;;5092787;28;1123;-72
2022/06/09 06:29:22;;;;;;;;;;;;;;;;;;5092930;28;1324;-72
2022/06/09 06:31:48;;;;;;;;;;;;;;;;;;5092720;28;834;-72
2022/06/09 06:34:16;;;;;;;;;;;;;;;;;;5092863;28;1028;-72
2022/06/09 06:36:42;;;;;;;;;;;;;;;;;;5092339;28;1973;-72
2022/06/09 06:39:09;;;;;;;;;;;;;;;;;;5092651;28;1307;-70
2022/06/09 06:41:37;;;;;;;;;;;;;;;;;;5088936;22;1986;-72
2022/06/09 06:44:04;;;;;;;;;;;;;;;;;;5068103;28;1981;-72
2022/06/09 06:46:30;;;;;;;;;;;;;;;;;;5071581;28;1087;-72
2022/06/09 06:48:56;;;;;;;;;;;;;;;;;;5071816;28;1098;-72
2022/06/09 06:51:22;;;;;;;;;;;;;;;;;;5072094;28;1266;-73
2022/06/09 06:53:48;;;;;;;;;;;;;;;;;;5071834;28;1001;-72
2022/06/09 06:56:16;;;;;;;;;;;;;;;;;;5070950;28;1975;-73
2022/06/09 06:58:43;;;;;;;;;;;;;;;;;;5071879;28;1106;-73
2022/06/09 07:01:09;;;;;;;;;;;;;;;;;;5071518;28;1380;-72
2022/06/09 07:03:36;;;;;;;;;;;;;;;;;;5071708;28;1095;-72
2022/06/09 07:06:02;;;;;;;;;;;;;;;;;;5053665;28;1144;-72
2022/06/09 07:08:28;;;;;;;;;;;;;;;;;;5053624;28;1363;-73
2022/06/09 07:10:54;;;;;;;;;;;;;;;;;;5071412;28;1321;-73
2022/06/09 07:13:22;;;;;;;;;;;;;;;;;;5071573;28;988;-72
2022/06/09 07:15:49;;;;;;;;;;;;;;;;;;5071463;28;1126;-73
2022/06/09 07:18:15;;;;;;;;;;;;;;;;;;5071262;28;1914;-73
2022/06/09 07:20:41;;;;;;;;;;;;;;;;;;5071431;28;1322;-71
2022/06/09 07:23:07;;;;;;;;;;;;;;;;;;5071280;28;844;-73
2022/06/09 07:25:34;;;;;;;;;;;;;;;;;;5053294;28;1271;-72
2022/06/09 07:28:00;;;;;;;;;;;;;;;;;;5070864;28;976;-72
2022/06/09 07:30:28;;;;;;;;;;;;;;;;;;5071253;28;1293;-72
2022/06/09 07:32:54;;;;;;;;;;;;;;;;;;5071284;28;797;-71
2022/06/09 07:35:21;;;;;;;;;;;;;;;;;;5071178;28;849;-72
2022/06/09 07:37:48;;;;;;;;;;;;;;;;;;5038317;28;1922;-73
2022/06/09 07:40:14;;;;;;;;;;;;;;;;;;5050760;28;1303;-73
2022/06/09 07:42:40;;;;;;;;;;;;;;;;;;5051113;28;798;-71
2022/06/09 07:45:09;;;;;;;;;;;;;;;;;;5050935;28;1092;-73
2022/06/09 07:47:37;;;;;;;;;;;;;;;;;;5050958;28;1083;-72
2022/06/09 07:50:03;;;;;;;;;;;;;;;;;;5050820;28;1314;-72
2022/06/09 07:52:29;;;;;;;;;;;;;;;;;;5050486;28;1782;-73
2022/06/09 07:54:55;;;;;;;;;;;;;;;;;;5052635;28;1152;-71
2022/06/09 07:57:22;;;;;;;;;;;;;;;;;;5052655;28;1914;-72
2022/06/09 07:59:48;;;;;;;;;;;;;;;;;;5070607;28;1368;-71
2022/06/09 08:02:15;;;;;;;;;;;;;;;;;;5070692;28;1139;-73
2022/06/09 08:04:42;;;;;;;;;;;;;;;;;;5052616;28;1192;-72
2022/06/09 08:07:08;;;;;;;;;;;;;;;;;;5070258;28;957;-71
2022/06/09 08:09:35;;;;;;;;;;;;;;;;;;5069964;28;1080;-72
2022/06/09 08:12:01;;;;;;;;;;;;;;;;;;5070586;28;956;-72
2022/06/09 08:14:27;;;;;;;;;;;;;;;;;;5070712;28;886;-73
2022/06/09 08:16:54;;;;;;;;;;;;;;;;;;5052376;28;1910;-73
2022/06/09 08:19:20;;;;;;;;;;;;;;;;;;5070844;28;1050;-72
2022/06/09 08:21:47;;;;;;;;;;;;;;;;;;5070500;28;1418;-73
2022/06/09 08:24:14;;;;;;;;;;;;;;;;;;5070610;28;1076;-72
2022/06/09 08:26:40;;;;;;;;;;;;;;;;;;5071503;28;1008;-72
2022/06/09 08:29:06;;;;;;;;;;;;;;;;;;5055620;28;1605;-72
2022/06/09 08:31:32;;;;;;;;;;;;;;;;;;5072768;28;1302;-72
2022/06/09 08:33:58;;;;;;;;;;;;;;;;;;5070257;28;1131;-72
2022/06/09 08:36:24;;;;;;;;;;;;;;;;;;5070347;28;798;-72
2022/06/09 08:38:52;;;;;;;;;;;;;;;;;;5070263;28;1973;-72
2022/06/09 08:41:27;;;;;;;;;;;;;;;;;;5070135;28;1410;-72
2022/06/09 08:43:55;;;;;;;;;;;;;;;;;;5070407;28;1134;-72
2022/06/09 08:46:24;;;;;;;;;;;;;;;;;;5070093;28;1142;-72
2022/06/09 08:48:51;;;;;;;;;;;;;;;;;;5070323;28;1130;-70
2022/06/09 08:51:20;;;;;;;;;;;;;;;;;;5070407;28;1432;-72
2022/06/09 08:53:47;;;;;;;;;;;;;;;;;;5070137;28;1067;-72
2022/06/09 08:56:17;;;;;;;;;;;;;;;;;;5069989;28;948;-72
2022/06/09 08:58:44;;;;;;;;;;;;;;;;;;5052247;28;1992;-72
2022/06/09 09:01:17;;;;;;;;;;;;;;;;;;5069908;28;1375;-72
2022/06/09 09:03:48;;;;;;;;;;;;;;;;;;5070184;28;777;-73
2022/06/09 09:06:17;;;;;;;;;;;;;;;;;;5069923;28;822;-74
2022/06/09 09:08:43;;;;;;;;;;;;;;;;;;5070127;28;844;-72
2022/06/09 09:11:18;;;;;;;;;;;;;;;;;;5069984;28;1304;-72
2022/06/09 09:13:45;;;;;;;;;;;;;;;;;;5069940;28;1115;-73
2022/06/09 09:16:20;;;;;;;;;;;;;;;;;;5069780;28;1127;-72
2022/06/09 09:18:48;;;;;;;;;;;;;;;;;;5070015;28;1918;-72
2022/06/09 09:21:17;;;;;;;;;;;;;;;;;;5073556;28;1301;-73
2022/06/09 09:23:46;;;;;;;;;;;;;;;;;;5073588;28;1068;-73
2022/06/09 09:26:15;;;;;;;;;;;;;;;;;;5073287;28;1091;-72
2022/06/09 09:28:45;;;;;;;;;;;;;;;;;;5073645;28;937;-72
2022/06/09 09:31:14;;;;;;;;;;;;;;;;;;5073524;28;1368;-73
2022/06/09 09:33:40;;;;;;;;;;;;;;;;;;5073528;28;1123;-72
2022/06/09 09:36:07;;;;;;;;;;;;;;;;;;5073303;28;1024;-71
2022/06/09 09:38:36;;;;;;;;;;;;;;;;;;5073784;28;1934;-73
2022/06/09 09:41:02;;;;;;;;;;;;;;;;;;5073506;28;1302;-72
2022/06/09 09:43:34;;;;;;;;;;;;;;;;;;5057746;28;1604;-72
2022/06/09 09:46:01;;;;;;;;;;;;;;;;;;5053248;28;890;-72
2022/06/09 09:48:29;;;;;;;;;;;;;;;;;;5053066;28;988;-71
2022/06/09 09:50:56;;;;;;;;;;;;;;;;;;5053006;28;1408;-71
2022/06/09 09:53:23;;;;;;;;;;;;;;;;;;5053147;28;1075;-72
2022/06/09 09:55:50;;;;;;;;;;;;;;;;;;5052943;28;817;-72
2022/06/09 09:58:24;;;;;;;;;;;;;;;;;;5052846;28;1914;-72
2022/06/09 10:00:51;;;;;;;;;;;;;;;;;;5052780;28;1338;-72
2022/06/09 10:08:49;;;;;;;;;;;;;;;;;;5034741;28;921;-72
2022/06/09 10:14:00;;;;;;;;;;;;;;;;;;5052589;28;992;-73
2022/06/09 10:16:28;;;;;;;;;;;;;;;;;;5052639;28;929;-73
2022/06/09 10:18:56;;;;;;;;;;;;;;;;;;5052248;28;1977;-71
2022/06/09 10:21:22;;;;;;;;;;;;;;;;;;5052616;28;1317;-72
2022/06/09 10:23:50;;;;;;;;;;;;;;;;;;5052391;28;1151;-72
2022/06/09 10:26:17;;;;;;;;;;;;;;;;;;5052424;28;861;-72
2022/06/09 10:28:46;;;;;;;;;;;;;;;;;;5052529;28;1115;-73
2022/06/09 10:31:13;;;;;;;;;;;;;;;;;;5051233;28;1392;-72
2022/06/09 10:33:41;;;;;;;;;;;;;;;;;;5052524;28;911;-74
2022/06/09 10:36:11;;;;;;;;;;;;;;;;;;5052097;28;1067;-71
2022/06/09 10:38:37;;;;;;;;;;;;;;;;;;5052133;28;1975;-73
2022/06/09 10:41:05;;;;;;;;;;;;;;;;;;5052217;28;1400;-72
2022/06/09 10:43:33;;;;;;;;;;;;;;;;;;5052126;28;1130;-73
2022/06/09 10:46:00;;;;;;;;;;;;;;;;;;5051689;28;1072;-72
2022/06/09 10:56:48;;;;;;;;;;;;;;;;;;5051896;28;805;-73
2022/06/09 10:59:14;;;;;;;;;;;;;;;;;;5051628;28;1914;-73
2022/06/09 11:01:41;;;;;;;;;;;;;;;;;;5051902;28;1312;-73
2022/06/09 11:04:07;;;;;;;;;;;;;;;;;;5052027;28;724;-72
2022/06/09 11:06:38;;;;;;;;;;;;;;;;;;5051472;28;1080;-72
2022/06/09 11:09:07;;;;;;;;;;;;;;;;;;5051573;28;1118;-73
2022/06/09 11:11:35;;;;;;;;;;;;;;;;;;5051547;28;1395;-73
2022/06/09 11:14:03;;;;;;;;;;;;;;;;;;5051473;28;1079;-72
2022/06/09 11:16:31;;;;;;;;;;;;;;;;;;5051329;28;973;-72
2022/06/09 11:19:09;;;;;;;;;;;;;;;;;;5033616;28;1922;-72
2022/06/09 11:21:38;;;;;;;;;;;;;;;;;;5051479;28;1386;-73
2022/06/09 11:24:14;;;;;;;;;;;;;;;;;;5051129;28;953;-73
2022/06/09 11:26:42;;;;;;;;;;;;;;;;;;5051180;28;826;-73
2022/06/09 11:29:13;;;;;;;;;;;;;;;;;;5051292;28;925;-73
2022/06/09 11:31:42;;;;;;;;;;;;;;;;;;5033101;28;1392;-72
2022/06/09 11:34:16;;;;;;;;;;;;;;;;;;5050859;28;834;-72
2022/06/09 11:36:43;;;;;;;;;;;;;;;;;;5051148;28;894;-72
2022/06/09 11:39:19;;;;;;;;;;;;;;;;;;5033351;28;1969;-73
2022/06/09 11:41:47;;;;;;;;;;;;;;;;;;5051052;28;1334;-73
2022/06/09 11:44:17;;;;;;;;;;;;;;;;;;5050896;28;1060;-73
2022/06/09 11:46:44;;;;;;;;;;;;;;;;;;5050725;28;1075;-73
2022/06/09 11:49:12;;;;;;;;;;;;;;;;;;5053408;28;1586;-74
2022/06/09 11:51:38;;;;;;;;;;;;;;;;;;5050752;28;1302;-72
2022/06/09 11:54:06;;;;;;;;;;;;;;;;;;5050594;28;1445;-74
2022/06/09 11:56:36;;;;;;;;;;;;;;;;;;5050648;28;1079;-73
2022/06/09 11:59:03;;;;;;;;;;;;;;;;;;5050623;28;1921;-73
2022/06/09 12:01:34;;;;;;;;;;;;;;;;;;5051455;28;1369;-74
2022/06/09 12:04:06;;;;;;;;;;;;;;;;;;5050911;28;1079;-73
2022/06/09 12:06:35;;;;;;;;;;;;;;;;;;5050527;28;1418;-73
2022/06/09 12:09:03;;;;;;;;;;;;;;;;;;5032660;28;992;-73
2022/06/09 12:11:44;;;;;;;;;;;;;;;;;;5050625;28;1409;-73
2022/06/09 12:14:17;;;;;;;;;;;;;;;;;;5050004;28;1339;-72
2022/06/09 12:16:54;;;;;;;;;;;;;;;;;;5050367;28;1075;-73
2022/06/09 12:19:21;;;;;;;;;;;;;;;;;;5050665;28;1918;-72
2022/06/09 12:21:48;;;;;;;;;;;;;;;;;;5050437;28;1298;-72
2022/06/09 12:24:26;;;;;;;;;;;;;;;;;;5032752;28;1219;-74
2022/06/09 12:26:55;;;;;;;;;;;;;;;;;;5050259;28;1111;-72
2022/06/09 12:29:45;;;;;;;;;;;;;;;;;;5050823;28;928;-73
2022/06/09 12:32:35;;;;;;;;;;;;;;;;;;5050637;28;1084;-72
2022/06/09 12:35:01;;;;;;;;;;;;;;;;;;5050300;28;799;-73
2022/06/09 12:37:29;;;;;;;;;;;;;;;;;;5050364;28;1139;-73
2022/06/09 12:39:56;;;;;;;;;;;;;;;;;;5049875;28;1975;-72
2022/06/09 12:42:23;;;;;;;;;;;;;;;;;;5050468;28;847;-73
2022/06/09 12:44:52;;;;;;;;;;;;;;;;;;5050721;28;2262;-72
2022/06/09 12:47:21;;;;;;;;;;;;;;;;;;5070087;28;1117;-72
2022/06/09 12:49:48;;;;;;;;;;;;;;;;;;5070411;28;1317;-72
2022/06/09 12:52:18;;;;;;;;;;;;;;;;;;5070280;28;873;-72
2022/06/09 12:54:45;;;;;;;;;;;;;;;;;;5071888;28;1071;-72
2022/06/09 12:57:14;;;;;;;;;;;;;;;;;;5074137;28;974;-72
2022/06/09 12:59:40;;;;;;;;;;;;;;;;;;5074090;28;1977;-73
2022/06/09 13:02:20;;;;;;;;;;;;;;;;;;5074225;28;914;-72
2022/06/09 13:04:51;;;;;;;;;;;;;;;;;;5073992;28;1167;-72
2022/06/09 13:07:20;;;;;;;;;;;;;;;;;;5056155;28;1385;-72
2022/06/09 13:09:58;;;;;;;;;;;;;;;;;;5055946;28;1459;-72
2022/06/09 13:15:12;;;;;;;;;;;;;;;;;;5072303;28;1366;-71
2022/06/09 13:17:40;;;;;;;;;;;;;;;;;;5073600;28;1179;-72
2022/06/09 13:20:08;;;;;;;;;;;;;;;;;;5071958;28;1914;-72
2022/06/09 13:22:34;;;;;;;;;;;;;;;;;;5065565;28;1434;-72
2022/06/09 13:25:01;;;;;;;;;;;;;;;;;;5055509;28;1506;-71
2022/06/09 13:27:28;;;;;;;;;;;;;;;;;;5069241;28;1601;-72
2022/06/09 13:29:59;;;;;;;;;;;;;;;;;;5073283;28;1289;-71
2022/06/09 13:32:27;;;;;;;;;;;;;;;;;;5073445;28;951;-71
2022/06/09 13:34:56;;;;;;;;;;;;;;;;;;5052535;28;1377;-71
2022/06/09 13:37:23;;;;;;;;;;;;;;;;;;5073054;28;1205;-71
2022/06/09 13:39:50;;;;;;;;;;;;;;;;;;5073193;28;1975;-72
2022/06/09 13:42:19;;;;;;;;;;;;;;;;;;5050249;28;1534;-71
2022/06/09 13:44:47;;;;;;;;;;;;;;;;;;5067960;28;1311;-71
2022/06/09 13:47:15;;;;;;;;;;;;;;;;;;5068949;28;1563;-72
2022/06/09 13:49:42;;;;;;;;;;;;;;;;;;5080208;22;3664;-72
2022/06/09 13:52:24;;;;;;;;;;;;;;;;;;5051319;28;1516;-74
2022/06/09 13:54:51;;;;;;;;;;;;;;;;;;5048920;28;1380;-73
2022/06/09 13:57:20;;;;;;;;;;;;;;;;;;5050783;28;1608;-74
2022/06/09 13:59:46;;;;;;;;;;;;;;;;;;5052241;28;1906;-74
2022/06/09 14:02:12;;;;;;;;;;;;;;;;;;5050596;28;1157;-74
2022/06/09 14:04:39;;;;;;;;;;;;;;;;;;5049499;28;1458;-75
2022/06/09 14:07:05;;;;;;;;;;;;;;;;;;5048455;28;1386;-75
2022/06/09 14:09:33;;;;;;;;;;;;;;;;;;5051232;28;1481;-75
2022/06/09 14:12:00;;;;;;;;;;;;;;;;;;5052598;28;1298;-75
2022/06/09 14:14:26;;;;;;;;;;;;;;;;;;5050001;28;1433;-74
2022/06/09 14:16:52;;;;;;;;;;;;;;;;;;5052581;28;1213;-74
2022/06/09 14:19:18;;;;;;;;;;;;;;;;;;5052890;28;1914;-74
2022/06/09 14:21:45;;;;;;;;;;;;;;;;;;5051507;28;1335;-75
2022/06/09 14:24:13;;;;;;;;;;;;;;;;;;5052612;28;1051;-75
2022/06/09 14:26:41;;;;;;;;;;;;;;;;;;5052300;28;811;-74
2022/06/09 14:29:07;;;;;;;;;;;;;;;;;;5046951;28;1123;-75
2022/06/09 14:31:34;;;;;;;;;;;;;;;;;;5043349;28;1396;-75
2022/06/09 14:34:01;;;;;;;;;;;;;;;;;;5039636;28;1258;-74
2022/06/09 14:36:27;;;;;;;;;;;;;;;;;;5042630;28;1262;-74
2022/06/09 14:38:53;;;;;;;;;;;;;;;;;;5043779;28;1980;-75
2022/06/09 14:41:20;;;;;;;;;;;;;;;;;;5052274;28;1379;-75
2022/06/09 14:43:47;;;;;;;;;;;;;;;;;;5052019;28;989;-76
2022/06/09 14:46:14;;;;;;;;;;;;;;;;;;5051802;28;1072;-74
2022/06/09 14:48:40;;;;;;;;;;;;;;;;;;5051908;28;1056;-75
2022/06/09 14:51:06;;;;;;;;;;;;;;;;;;5051855;28;1338;-76
2022/06/09 14:53:33;;;;;;;;;;;;;;;;;;5051558;28;973;-75
2022/06/09 14:55:59;;;;;;;;;;;;;;;;;;5051838;28;1083;-75
2022/06/09 14:58:26;;;;;;;;;;;;;;;;;;5051338;28;1008;-75
2022/06/09 15:00:54;;;;;;;;;;;;;;;;;;5051570;28;1906;-75
2022/06/09 15:03:20;;;;;;;;;;;;;;;;;;5051965;28;1072;-74
2022/06/09 15:05:46;;;;;;;;;;;;;;;;;;5051762;28;938;-74
2022/06/09 15:08:13;;;;;;;;;;;;;;;;;;5051678;28;1120;-74
2022/06/09 15:10:40;;;;;;;;;;;;;;;;;;5051530;28;1258;-74
2022/06/09 15:13:07;;;;;;;;;;;;;;;;;;5051737;28;1115;-74
2022/06/09 15:15:34;;;;;;;;;;;;;;;;;;5051470;28;1056;-74
2022/06/09 15:18:01;;;;;;;;;;;;;;;;;;5050885;28;981;-73
2022/06/09 15:20:31;;;;;;;;;;;;;;;;;;5051278;28;1981;-74
2022/06/09 15:22:57;;;;;;;;;;;;;;;;;;5048776;28;1063;-73
2022/06/09 15:25:23;;;;;;;;;;;;;;;;;;5051070;28;981;-74
2022/06/09 15:27:50;;;;;;;;;;;;;;;;;;5048523;28;1761;-74
2022/06/09 15:30:17;;;;;;;;;;;;;;;;;;5061770;28;1376;-73
2022/06/09 15:32:44;;;;;;;;;;;;;;;;;;5070886;28;1124;-74
2022/06/09 15:35:12;;;;;;;;;;;;;;;;;;5071046;28;1071;-74
2022/06/09 15:37:38;;;;;;;;;;;;;;;;;;5069521;28;1277;-74
2022/06/09 15:40:04;;;;;;;;;;;;;;;;;;5071259;28;1914;-74
2022/06/09 15:42:31;;;;;;;;;;;;;;;;;;5071001;28;997;-72
2022/06/09 15:44:57;;;;;;;;;;;;;;;;;;5070872;28;1134;-74
2022/06/09 15:47:23;;;;;;;;;;;;;;;;;;5070828;28;796;-74
2022/06/09 15:49:49;;;;;;;;;;;;;;;;;;5070623;28;1421;-74
2022/06/09 15:52:17;;;;;;;;;;;;;;;;;;5070975;28;1060;-73
2022/06/09 15:54:43;;;;;;;;;;;;;;;;;;5070795;28;830;-74
2022/06/09 15:57:09;;;;;;;;;;;;;;;;;;5070851;28;1134;-75
2022/06/09 15:59:35;;;;;;;;;;;;;;;;;;5070790;28;1910;-74
2022/06/09 16:02:09;;;;;;;;;;;;;;;;;;5070726;28;961;-75
2022/06/09 16:04:36;;;;;;;;;;;;;;;;;;5069470;28;1564;-75
2022/06/09 16:07:02;;;;;;;;;;;;;;;;;;5049251;28;1542;-77
2022/06/09 16:09:30;;;;;;;;;;;;;;;;;;5051147;28;1354;-76
2022/06/09 16:11:56;;;;;;;;;;;;;;;;;;5051177;28;1134;-74
2022/06/09 16:14:22;;;;;;;;;;;;;;;;;;5049671;28;1399;-74
2022/06/09 16:16:48;;;;;;;;;;;;;;;;;;5048616;28;1418;-74
2022/06/09 16:19:15;;;;;;;;;;;;;;;;;;5049806;28;1924;-73
2022/06/09 16:21:41;;;;;;;;;;;;;;;;;;5050693;28;1149;-74
2022/06/09 16:24:07;;;;;;;;;;;;;;;;;;5050849;28;732;-73
2022/06/09 16:26:35;;;;;;;;;;;;;;;;;;5050047;28;838;-73
2022/06/09 16:29:01;;;;;;;;;;;;;;;;;;5047550;28;1332;-74
2022/06/09 16:31:27;;;;;;;;;;;;;;;;;;5050025;28;1387;-74
2022/06/09 16:33:53;;;;;;;;;;;;;;;;;;5050318;28;1403;-74
2022/06/09 16:36:20;;;;;;;;;;;;;;;;;;5048970;28;1261;-74
2022/06/09 16:38:46;;;;;;;;;;;;;;;;;;5041752;28;1441;-73
2022/06/09 16:41:12;;;;;;;;;;;;;;;;;;5047828;28;1977;-74
2022/06/09 16:43:40;;;;;;;;;;;;;;;;;;5049069;28;1683;-74
2022/06/09 16:46:07;;;;;;;;;;;;;;;;;;5048602;28;1225;-73
2022/06/09 16:48:33;;;;;;;;;;;;;;;;;;5050231;28;1395;-74
2022/06/09 16:50:59;;;;;;;;;;;;;;;;;;5049100;28;1422;-73
2022/06/09 16:53:25;;;;;;;;;;;;;;;;;;5048120;28;1488;-74
2022/06/09 16:55:51;;;;;;;;;;;;;;;;;;5048927;28;1343;-74
2022/06/09 16:58:18;;;;;;;;;;;;;;;;;;5047049;28;1456;-74
2022/06/09 17:00:45;;;;;;;;;;;;;;;;;;5049824;28;1910;-75
2022/06/09 17:03:13;;;;;;;;;;;;;;;;;;5045067;28;1559;-74
2022/06/09 17:05:40;;;;;;;;;;;;;;;;;;5047727;28;1433;-73
2022/06/09 17:08:06;;;;;;;;;;;;;;;;;;5048177;28;1434;-73
2022/06/09 17:10:33;;;;;;;;;;;;;;;;;;5046234;28;1384;-73
2022/06/09 17:13:00;;;;;;;;;;;;;;;;;;5048195;28;847;-74
2022/06/09 17:15:27;;;;;;;;;;;;;;;;;;5038025;28;1422;-73
2022/06/09 17:17:54;;;;;;;;;;;;;;;;;;5049464;28;1233;-73
2022/06/09 17:20:20;;;;;;;;;;;;;;;;;;5049937;28;1996;-75
2022/06/09 17:22:46;;;;;;;;;;;;;;;;;;5049929;28;834;-75
2022/06/09 17:25:13;;;;;;;;;;;;;;;;;;5050036;28;954;-74
2022/06/09 17:27:39;;;;;;;;;;;;;;;;;;5049278;28;840;-75
2022/06/09 17:30:07;;;;;;;;;;;;;;;;;;5049841;28;1392;-74
2022/06/09 17:32:33;;;;;;;;;;;;;;;;;;5035950;28;1538;-74
2022/06/09 17:35:00;;;;;;;;;;;;;;;;;;5042428;28;1375;-75